Time;durP1;ratioP1;P1;durP2;ratioP2;P2;SDS_P1;SDS_P2;PMS_P1;PMS_P2;Temp;Humidity;BMP_temperature;BMP_pressure;BME280_temperature;BME280_humidity;BME280_pressure;Samples;Min_cycle;Max_cycle;Signal;HPM_P1;HPM_P2
2022/08/05 00:01:24;;;;;;;3.13;2.70;;;23.10;92.90;;;;;;5062740;28;20049;-69
2022/08/05 00:03:56;;;;;;;5.75;2.90;;;23.00;92.30;;;;;;5068153;28;20098;-69
2022/08/05 00:06:28;;;;;;;3.08;2.78;;;23.10;92.20;;;;;;5060090;28;20052;-68
2022/08/05 00:08:55;;;;;;;4.32;2.70;;;23.10;93.00;;;;;;5061795;28;20144;-69
2022/08/05 00:11:21;;;;;;;3.75;3.10;;;23.00;93.40;;;;;;5066077;28;20043;-68
2022/08/05 00:13:53;;;;;;;4.68;3.17;;;23.10;93.20;;;;;;5063918;28;20060;-69
2022/08/05 00:16:25;;;;;;;3.97;2.97;;;23.00;94.10;;;;;;5060139;28;20032;-71
2022/08/05 00:18:57;;;;;;;3.05;2.75;;;22.90;94.40;;;;;;5059218;28;20499;-71
2022/08/05 00:21:28;;;;;;;4.07;2.90;;;22.90;94.40;;;;;;5055154;28;20033;-71
2022/08/05 00:24:00;;;;;;;3.50;2.88;;;22.80;94.50;;;;;;5041459;28;20068;-74
2022/08/05 00:26:32;;;;;;;3.42;3.00;;;22.80;94.70;;;;;;5059742;28;20055;-71
2022/08/05 00:29:04;;;;;;;3.55;3.08;;;22.70;95.00;;;;;;5061060;28;20405;-71
2022/08/05 00:31:35;;;;;;;5.90;3.08;;;22.60;95.50;;;;;;5059141;28;20039;-71
2022/08/05 00:34:04;;;;;;;5.20;2.97;;;22.60;95.80;;;;;;5066924;28;20055;-71
2022/08/05 00:36:35;;;;;;;3.53;3.22;;;22.40;95.20;;;;;;5051378;28;20048;-71
2022/08/05 00:39:08;;;;;;;5.05;3.72;;;22.20;95.60;;;;;;5048951;28;20522;-69
2022/08/05 00:41:45;;;;;;;3.95;3.63;;;22.20;96.10;;;;;;5064478;28;20037;-71
2022/08/05 00:44:16;;;;;;;4.68;3.58;;;22.10;96.30;;;;;;5060014;28;20091;-71
2022/08/05 00:46:48;;;;;;;6.50;4.13;;;22.10;96.80;;;;;;5057919;28;20522;-70
2022/08/05 00:49:20;;;;;;;3.58;3.03;;;22.10;96.90;;;;;;5050893;28;20668;-71
2022/08/05 00:51:52;;;;;;;5.57;3.15;;;22.00;97.30;;;;;;5069523;22;20037;-89
2022/08/05 00:54:23;;;;;;;4.63;3.00;;;22.00;97.60;;;;;;5060411;28;20041;-89
2022/08/05 00:56:55;;;;;;;4.22;3.08;;;22.00;98.00;;;;;;5041317;28;20037;-89
2022/08/05 00:59:22;;;;;;;3.53;3.20;;;21.80;98.70;;;;;;5031965;28;20141;-89
2022/08/05 01:01:54;;;;;;;3.42;3.13;;;21.70;99.20;;;;;;5042338;28;20053;-89
2022/08/05 01:04:21;;;;;;;4.13;3.00;;;21.70;99.80;;;;;;5043239;28;20060;-89
2022/08/05 01:06:52;;;;;;;4.80;3.17;;;21.60;99.90;;;;;;5051495;22;20056;-72
2022/08/05 01:09:24;;;;;;;4.53;3.28;;;21.60;99.90;;;;;;5061617;28;20119;-72
2022/08/05 01:12:02;;;;;;;4.72;3.53;;;21.60;99.90;;;;;;5058182;28;20403;-74
2022/08/05 01:14:46;;;;;;;4.47;3.22;;;21.60;99.90;;;;;;5048800;28;20041;-72
2022/08/05 01:17:39;;;;;;;5.25;3.35;;;21.60;99.90;;;;;;5060960;28;20490;-72
2022/08/05 01:20:39;;;;;;;4.35;3.95;;;21.50;99.90;;;;;;5065896;28;20055;-73
2022/08/05 01:23:29;;;;;;;3.70;3.00;;;21.50;99.90;;;;;;5062602;28;20040;-73
2022/08/05 01:26:38;;;;;;;4.05;3.42;;;21.40;99.90;;;;;;5064075;28;20052;-73
2022/08/05 01:29:36;;;;;;;3.80;3.45;;;21.40;99.90;;;;;;5059795;28;20449;-72
2022/08/05 01:32:10;;;;;;;3.72;3.42;;;21.40;99.90;;;;;;5061010;28;20048;-72
2022/08/05 01:34:53;;;;;;;3.67;3.38;;;21.30;99.90;;;;;;5060960;28;20052;-72
2022/08/05 01:37:56;;;;;;;5.25;3.88;;;21.20;99.90;;;;;;5059179;28;20051;-72
2022/08/05 01:40:30;;;;;;;5.07;3.55;;;21.10;99.90;;;;;;5058885;28;20049;-73
2022/08/05 01:43:04;;;;;;;5.15;3.58;;;21.10;99.90;;;;;;5057714;28;20052;-72
2022/08/05 01:45:37;;;;;;;6.10;4.13;;;21.10;99.90;;;;;;5064206;28;20131;-72
2022/08/05 01:48:10;;;;;;;3.90;3.50;;;21.10;99.90;;;;;;5059178;28;20059;-72
2022/08/05 01:50:43;;;;;;;3.90;3.50;;;21.00;99.90;;;;;;5057321;28;20037;-72
2022/08/05 01:53:16;;;;;;;3.88;3.40;;;21.00;99.90;;;;;;5060504;28;20047;-71
2022/08/05 01:55:51;;;;;;;4.75;3.25;;;21.00;99.90;;;;;;5059094;28;20039;-72
2022/08/05 01:58:24;;;;;;;4.03;3.63;;;21.00;99.90;;;;;;5060282;28;20044;-72
2022/08/05 02:00:58;;;;;;;3.75;3.35;;;21.00;99.90;;;;;;5059521;28;20048;-72
2022/08/05 02:03:35;;;;;;;3.65;3.33;;;21.00;99.90;;;;;;5060644;28;20080;-72
2022/08/05 02:06:07;;;;;;;3.80;3.40;;;20.90;99.90;;;;;;5064085;28;20589;-72
2022/08/05 02:08:40;;;;;;;3.53;3.22;;;20.90;99.90;;;;;;5070262;28;20048;-72
2022/08/05 02:11:14;;;;;;;4.88;3.65;;;20.80;99.90;;;;;;5064339;28;20045;-72
2022/08/05 02:14:20;;;;;;;6.22;3.80;;;20.70;99.90;;;;;;5060464;28;20517;-72
2022/08/05 02:16:54;;;;;;;3.67;3.38;;;20.70;99.90;;;;;;5060521;28;20055;-73
2022/08/05 02:19:40;;;;;;;3.95;3.60;;;20.60;99.90;;;;;;5064196;28;20496;-72
2022/08/05 02:22:32;;;;;;;4.88;4.38;;;20.60;99.90;;;;;;5062210;28;20057;-73
2022/08/05 02:25:11;;;;;;;3.70;3.20;;;20.60;99.90;;;;;;5069576;28;20041;-73
2022/08/05 02:27:47;;;;;;;5.38;3.45;;;20.60;99.90;;;;;;5067194;28;20041;-72
2022/08/05 02:30:21;;;;;;;4.03;3.63;;;20.60;99.90;;;;;;5065448;28;20044;-73
2022/08/05 02:32:51;;;;;;;6.28;3.67;;;20.60;99.90;;;;;;5062758;28;20029;-72
2022/08/05 02:35:26;;;;;;;4.07;3.70;;;20.60;99.90;;;;;;5069048;28;20060;-72
2022/08/05 02:37:58;;;;;;;4.82;3.72;;;20.70;99.90;;;;;;5068727;28;20056;-72
2022/08/05 02:40:31;;;;;;;4.97;3.65;;;20.70;99.90;;;;;;5057104;28;20506;-72
2022/08/05 02:43:04;;;;;;;5.00;4.27;;;20.80;99.90;;;;;;5059429;28;20056;-72
2022/08/05 02:45:39;;;;;;;5.70;4.40;;;20.80;99.90;;;;;;5066816;28;20287;-72
2022/08/05 02:48:11;;;;;;;4.60;4.20;;;20.80;99.90;;;;;;5063047;28;20045;-72
2022/08/05 02:50:46;;;;;;;4.72;4.10;;;20.70;99.90;;;;;;5061858;28;20037;-75
2022/08/05 02:53:20;;;;;;;5.57;4.10;;;20.70;99.90;;;;;;5054021;28;20036;-72
2022/08/05 02:55:53;;;;;;;5.38;4.25;;;20.70;99.90;;;;;;5065706;28;20060;-72
2022/08/05 02:58:25;;;;;;;7.82;4.53;;;20.70;99.90;;;;;;5068219;28;20051;-72
2022/08/05 03:01:00;;;;;;;9.50;4.35;;;20.60;99.90;;;;;;5064641;28;20049;-72
2022/08/05 03:03:34;;;;;;;5.32;3.80;;;20.50;99.90;;;;;;5060189;28;20040;-72
2022/08/05 03:06:09;;;;;;;5.43;4.05;;;20.40;99.90;;;;;;5064167;28;20588;-72
2022/08/05 03:08:42;;;;;;;5.70;4.50;;;20.40;99.90;;;;;;5063577;28;20052;-73
2022/08/05 03:11:21;;;;;;;5.82;5.22;;;20.40;99.90;;;;;;5063931;28;20040;-73
2022/08/05 03:13:53;;;;;;;4.70;4.30;;;20.40;99.90;;;;;;5061753;28;20406;-72
2022/08/05 03:16:25;;;;;;;4.97;4.40;;;20.30;99.90;;;;;;5050969;28;20037;-72
2022/08/05 03:18:56;;;;;;;6.07;4.53;;;20.30;99.90;;;;;;5061320;28;20045;-71
2022/08/05 03:21:28;;;;;;;6.80;4.45;;;20.20;99.90;;;;;;5059714;28;20040;-72
2022/08/05 03:24:01;;;;;;;4.60;4.20;;;20.10;99.90;;;;;;5053509;28;20045;-72
2022/08/05 03:26:32;;;;;;;7.90;4.80;;;20.00;99.90;;;;;;5064323;28;20486;-72
2022/08/05 03:29:04;;;;;;;5.10;4.18;;;19.90;99.90;;;;;;5061502;28;20063;-73
2022/08/05 03:31:36;;;;;;;4.35;3.95;;;19.90;99.90;;;;;;5060337;28;20049;-72
2022/08/05 03:34:08;;;;;;;6.25;3.60;;;19.90;99.90;;;;;;5058303;28;20375;-72
2022/08/05 03:36:40;;;;;;;4.60;3.65;;;19.90;99.90;;;;;;5065051;28;20047;-72
2022/08/05 03:39:12;;;;;;;7.28;4.50;;;19.90;99.90;;;;;;5063677;28;20074;-72
2022/08/05 03:41:43;;;;;;;4.75;4.35;;;20.00;99.90;;;;;;5062131;28;20052;-72
2022/08/05 03:44:15;;;;;;;4.10;3.70;;;20.00;99.90;;;;;;5062404;28;20123;-72
2022/08/05 03:46:47;;;;;;;4.32;3.92;;;20.00;99.90;;;;;;5063193;28;20048;-72
2022/08/05 03:49:19;;;;;;;4.40;4.00;;;20.00;99.90;;;;;;5068953;28;20383;-72
2022/08/05 03:51:54;;;;;;;4.68;4.28;;;20.00;99.90;;;;;;5061520;28;20049;-73
2022/08/05 03:54:36;;;;;;;5.97;3.92;;;20.00;99.90;;;;;;5064154;28;20051;-73
2022/08/05 03:57:10;;;;;;;4.28;3.88;;;20.00;99.90;;;;;;5062559;28;20071;-72
2022/08/05 03:59:54;;;;;;;4.57;3.80;;;19.90;99.90;;;;;;5063026;28;20052;-72
2022/08/05 04:02:28;;;;;;;;;;;20.00;99.90;;;;;;5044200;28;20431;-72
2022/08/05 04:05:03;;;;;;;4.10;3.65;;;20.00;99.90;;;;;;5066107;28;19927;-72
2022/08/05 04:07:36;;;;;;;6.05;3.72;;;20.00;99.90;;;;;;5063780;28;20095;-72
2022/08/05 04:10:08;;;;;;;;;;;20.10;99.90;;;;;;5059972;28;20091;-72
2022/08/05 04:12:40;;;;;;;4.30;3.50;;;20.10;99.90;;;;;;5060854;28;19921;-72
2022/08/05 04:15:06;;;;;;;4.68;3.42;;;20.20;99.90;;;;;;5064449;28;20035;-73
2022/08/05 04:17:38;;;;;;;4.63;4.20;;;20.30;99.90;;;;;;5063030;28;20068;-72
2022/08/05 04:20:21;;;;;;;4.15;3.70;;;20.40;99.90;;;;;;5063122;28;20048;-72
2022/08/05 04:22:52;;;;;;;6.38;3.88;;;20.40;99.90;;;;;;5059221;28;20044;-72
2022/08/05 04:25:24;;;;;;;4.38;3.30;;;20.70;99.90;;;;;;5063297;28;20045;-71
2022/08/05 04:27:56;;;;;;;8.15;4.65;;;21.20;99.90;;;;;;5059660;28;20048;-72
2022/08/05 04:30:28;;;;;;;5.72;5.00;;;21.70;99.90;;;;;;5061738;28;20402;-72
2022/08/05 04:32:59;;;;;;;4.43;4.03;;;21.90;99.90;;;;;;5058296;28;20069;-73
2022/08/05 04:35:31;;;;;;;6.78;3.47;;;21.90;99.90;;;;;;5062907;28;20044;-73
2022/08/05 04:38:03;;;;;;;3.85;3.50;;;22.20;99.90;;;;;;5051792;28;20044;-72
2022/08/05 04:40:36;;;;;;;3.65;3.35;;;22.50;99.90;;;;;;5057022;28;20452;-72
2022/08/05 04:43:08;;;;;;;;;;;22.70;99.90;;;;;;5057263;28;20040;-73
2022/08/05 04:45:35;;;;;;;6.47;4.15;;;22.70;99.90;;;;;;5068368;28;19928;-72
2022/08/05 04:48:09;;;;;;;5.13;3.72;;;22.60;99.90;;;;;;5064337;28;20041;-72
2022/08/05 04:50:46;;;;;;;4.35;3.95;;;22.60;99.90;;;;;;5060236;28;20052;-73
2022/08/05 04:53:18;;;;;;;4.07;3.63;;;22.80;99.90;;;;;;5056983;28;20068;-72
2022/08/05 04:55:50;;;;;;;3.92;3.53;;;23.10;99.90;;;;;;5062338;28;20069;-72
2022/08/05 04:58:22;;;;;;;8.27;3.58;;;23.20;99.90;;;;;;5069558;28;20084;-73
2022/08/05 05:00:54;;;;;;;3.47;3.17;;;23.30;99.90;;;;;;5063843;28;20041;-72
2022/08/05 05:03:26;;;;;;;3.38;3.03;;;23.40;99.90;;;;;;5055594;28;20045;-73
2022/08/05 05:05:57;;;;;;;3.78;3.47;;;23.40;99.90;;;;;;5063572;28;20057;-72
2022/08/05 05:08:29;;;;;;;3.78;3.40;;;23.40;99.90;;;;;;5061868;28;20099;-72
2022/08/05 05:11:01;;;;;;;3.53;3.22;;;23.40;99.90;;;;;;5060196;28;20037;-72
2022/08/05 05:13:33;;;;;;;5.65;3.42;;;23.40;99.90;;;;;;5058376;28;20511;-72
2022/08/05 05:16:04;;;;;;;4.65;3.70;;;23.40;99.90;;;;;;5063957;28;20068;-73
2022/08/05 05:18:36;;;;;;;3.80;3.42;;;23.40;99.90;;;;;;5061082;28;20108;-72
2022/08/05 05:21:08;;;;;;;6.80;3.65;;;23.40;99.90;;;;;;5059798;28;20048;-72
2022/08/05 05:23:40;;;;;;;3.95;3.55;;;23.40;99.90;;;;;;5061927;28;20410;-73
2022/08/05 05:26:12;;;;;;;4.10;3.20;;;23.40;99.90;;;;;;5064868;28;20036;-72
2022/08/05 05:28:43;;;;;;;5.45;3.65;;;23.40;99.90;;;;;;5062116;28;20049;-72
2022/08/05 05:31:15;;;;;;;3.92;3.63;;;23.40;99.90;;;;;;5057303;28;20033;-72
2022/08/05 05:33:47;;;;;;;6.25;3.50;;;23.40;99.90;;;;;;5059633;28;20048;-71
2022/08/05 05:36:18;;;;;;;5.15;3.55;;;23.30;99.90;;;;;;5061748;28;20046;-72
2022/08/05 05:38:50;;;;;;;5.72;3.70;;;23.30;99.90;;;;;;5059893;28;20052;-72
2022/08/05 05:41:22;;;;;;;5.20;3.13;;;23.30;99.90;;;;;;5057875;28;20080;-71
2022/08/05 05:43:54;;;;;;;4.72;4.07;;;23.30;99.90;;;;;;5063280;28;20098;-72
2022/08/05 05:46:26;;;;;;;5.15;3.88;;;23.30;99.90;;;;;;5064735;28;20044;-72
2022/08/05 05:48:57;;;;;;;4.00;3.70;;;23.20;99.90;;;;;;5065718;28;20075;-73
2022/08/05 05:51:29;;;;;;;8.27;4.10;;;23.20;99.90;;;;;;5064176;28;20059;-74
2022/08/05 05:54:01;;;;;;;4.30;3.70;;;23.20;99.90;;;;;;5067375;28;20041;-72
2022/08/05 05:56:32;;;;;;;5.68;3.83;;;23.10;99.90;;;;;;5066350;28;20037;-72
2022/08/05 05:59:05;;;;;;;6.95;4.05;;;23.10;99.90;;;;;;5063017;28;20044;-72
2022/08/05 06:01:39;;;;;;;5.75;3.88;;;23.10;99.90;;;;;;5067997;28;20394;-72
2022/08/05 06:04:12;;;;;;;5.57;4.00;;;23.10;99.90;;;;;;5065190;28;20078;-73
2022/08/05 06:06:44;;;;;;;5.43;3.78;;;23.00;99.90;;;;;;5065748;28;20087;-72
2022/08/05 06:09:16;;;;;;;5.63;3.97;;;23.00;99.90;;;;;;5063504;28;20037;-71
2022/08/05 06:11:44;;;;;;;7.15;3.83;;;23.10;99.90;;;;;;5064315;28;20110;-73
2022/08/05 06:14:16;;;;;;;5.50;4.20;;;23.10;99.90;;;;;;5063360;28;20040;-72
2022/08/05 06:16:47;;;;;;;6.75;3.85;;;23.10;99.90;;;;;;5060949;28;20059;-72
2022/08/05 06:19:19;;;;;;;6.20;4.38;;;23.10;99.90;;;;;;5068794;28;20121;-73
2022/08/05 06:21:51;;;;;;;5.13;4.22;;;23.10;99.90;;;;;;5065928;28;20591;-72
2022/08/05 06:24:23;;;;;;;5.85;4.18;;;23.10;99.90;;;;;;5060883;28;20051;-72
2022/08/05 06:26:54;;;;;;;4.68;4.05;;;23.10;99.90;;;;;;5067671;28;20040;-72
2022/08/05 06:29:26;;;;;;;5.28;4.18;;;23.20;99.90;;;;;;5062732;28;20041;-72
2022/08/05 06:31:58;;;;;;;4.90;4.40;;;23.20;99.90;;;;;;5064735;28;20041;-75
2022/08/05 06:34:29;;;;;;;5.10;4.20;;;23.20;99.90;;;;;;5068916;28;20044;-73
2022/08/05 06:37:01;;;;;;;4.32;3.92;;;23.20;99.90;;;;;;5065569;28;20073;-73
2022/08/05 06:39:33;;;;;;;5.25;3.90;;;23.20;99.90;;;;;;5056542;28;20056;-74
2022/08/05 06:42:01;;;;;;;5.53;4.68;;;23.20;99.90;;;;;;5060156;28;20071;-72
2022/08/05 06:44:33;;;;;;;4.18;3.78;;;23.10;99.90;;;;;;5065029;28;20080;-72
2022/08/05 06:47:05;;;;;;;6.13;3.80;;;23.10;99.90;;;;;;5067493;28;20131;-72
2022/08/05 06:49:32;;;;;;;5.53;4.10;;;23.20;99.90;;;;;;5060559;28;20052;-72
2022/08/05 06:52:03;;;;;;;8.40;4.00;;;23.20;99.90;;;;;;5060484;28;20049;-72
2022/08/05 06:54:35;;;;;;;7.47;4.30;;;23.20;99.90;;;;;;5062677;28;20110;-72
2022/08/05 06:57:02;;;;;;;5.05;4.10;;;23.30;99.90;;;;;;5021692;22;20039;-70
2022/08/05 06:59:34;;;;;;;6.85;3.65;;;23.40;99.90;;;;;;4987065;28;20080;-68
2022/08/05 07:02:06;;;;;;;7.13;4.82;;;23.40;99.90;;;;;;4986923;28;20133;-69
2022/08/05 07:04:39;;;;;;;6.45;3.83;;;23.40;99.90;;;;;;4985082;28;20042;-72
2022/08/05 07:07:11;;;;;;;8.10;3.80;;;23.50;99.90;;;;;;4989024;28;20065;-70
2022/08/05 07:09:38;;;;;;;6.47;3.88;;;23.60;99.90;;;;;;4992832;28;20042;-69
2022/08/05 07:16:48;;;;;;;6.55;3.70;;;23.60;99.90;;;;;;4984253;28;20038;-70
2022/08/05 07:17:46;;;;;;;8.40;4.05;;;23.70;99.90;;;;;;4982681;28;20042;-70
2022/08/05 07:20:18;;;;;;;4.95;3.72;;;23.70;99.90;;;;;;4986375;28;20052;-71
2022/08/05 07:22:49;;;;;;;4.40;3.80;;;23.70;99.90;;;;;;4981256;28;20049;-70
2022/08/05 07:25:21;;;;;;;8.20;4.03;;;23.80;99.90;;;;;;4983735;28;20050;-70
2022/08/05 07:27:55;;;;;;;8.88;3.92;;;23.80;99.90;;;;;;4989572;28;20427;-70
2022/08/05 07:30:27;;;;;;;6.53;4.35;;;23.90;99.90;;;;;;4990773;28;20042;-71
2022/08/05 07:33:00;;;;;;;9.15;4.68;;;23.90;99.90;;;;;;4975005;28;20047;-71
2022/08/05 07:35:32;;;;;;;6.28;3.67;;;23.90;99.90;;;;;;4980145;28;20043;-71
2022/08/05 07:38:04;;;;;;;7.57;3.85;;;23.90;99.90;;;;;;4982934;28;20781;-71
2022/08/05 07:40:36;;;;;;;5.60;4.27;;;23.90;99.90;;;;;;4987913;28;20049;-70
2022/08/05 07:43:08;;;;;;;7.53;4.18;;;23.90;99.90;;;;;;4982699;28;20293;-71
2022/08/05 07:45:42;;;;;;;7.63;4.00;;;23.90;99.90;;;;;;4979822;28;20533;-70
2022/08/05 07:48:14;;;;;;;8.60;3.90;;;24.00;99.90;;;;;;4988700;28;20281;-71
2022/08/05 07:50:46;;;;;;;7.28;4.28;;;24.00;99.90;;;;;;4984663;28;20050;-71
2022/08/05 07:53:18;;;;;;;7.10;3.95;;;24.00;99.90;;;;;;4980893;28;20057;-70
2022/08/05 07:55:49;;;;;;;7.38;4.50;;;24.10;99.90;;;;;;4982362;28;20057;-70
2022/08/05 07:58:21;;;;;;;7.43;4.22;;;24.20;99.90;;;;;;4990216;28;20066;-70
2022/08/05 08:00:49;;;;;;;7.07;4.70;;;24.40;99.90;;;;;;4989354;28;20057;-70
2022/08/05 08:03:21;;;;;;;9.77;3.90;;;24.60;99.90;;;;;;4983755;28;20767;-70
2022/08/05 08:05:52;;;;;;;10.02;4.10;;;24.80;99.90;;;;;;4985511;28;20050;-70
2022/08/05 08:08:24;;;;;;;6.15;4.10;;;25.00;99.90;;;;;;4991864;28;20045;-70
2022/08/05 08:10:56;;;;;;;8.25;4.15;;;25.20;99.90;;;;;;4985013;28;20038;-70
2022/08/05 08:13:28;;;;;;;8.07;4.13;;;25.30;99.90;;;;;;4988232;28;20034;-70
2022/08/05 08:15:59;;;;;;;7.28;3.90;;;25.30;99.90;;;;;;4990601;28;20074;-70
2022/08/05 08:18:31;;;;;;;8.50;3.70;;;25.40;99.90;;;;;;4982940;28;20038;-70
2022/08/05 08:21:04;;;;;;;4.38;3.63;;;25.50;99.90;;;;;;4979191;28;20047;-70
2022/08/05 08:23:36;;;;;;;4.03;3.63;;;25.60;99.90;;;;;;4985572;28;20161;-70
2022/08/05 08:26:07;;;;;;;5.85;3.72;;;25.70;99.90;;;;;;4986707;28;20053;-70
2022/08/05 08:28:39;;;;;;;7.68;3.60;;;25.90;99.90;;;;;;4985945;28;20043;-71
2022/08/05 08:31:11;;;;;;;5.05;3.30;;;26.00;99.90;;;;;;4982083;28;20425;-70
2022/08/05 08:33:44;;;;;;;6.25;3.50;;;26.10;99.90;;;;;;4977152;28;20042;-70
2022/08/05 08:36:15;;;;;;;6.72;3.25;;;26.20;99.90;;;;;;4985144;28;20061;-71
2022/08/05 08:38:47;;;;;;;8.02;3.60;;;26.20;99.90;;;;;;4980514;28;20049;-70
2022/08/05 08:41:20;;;;;;;3.58;2.50;;;26.40;99.90;;;;;;4987043;28;20365;-70
2022/08/05 08:43:54;;;;;;;4.88;2.95;;;26.50;99.80;;;;;;4986758;28;20048;-71
2022/08/05 08:46:30;;;;;;;8.93;4.47;;;26.60;99.90;;;;;;4981694;28;20042;-70
2022/08/05 08:49:03;;;;;;;4.28;3.47;;;26.70;99.30;;;;;;4987691;28;20050;-70
2022/08/05 08:51:37;;;;;;;6.95;3.47;;;26.80;99.30;;;;;;4972679;28;20050;-70
2022/08/05 08:54:04;;;;;;;7.05;3.50;;;26.90;99.60;;;;;;4972247;28;20053;-70
2022/08/05 08:56:39;;;;;;;7.25;3.28;;;26.90;98.60;;;;;;4976748;28;20784;-70
2022/08/05 08:59:11;;;;;;;5.43;3.42;;;26.90;98.20;;;;;;4987356;28;20042;-71
2022/08/05 09:01:44;;;;;;;3.78;3.22;;;26.90;98.30;;;;;;4988092;28;20109;-70
2022/08/05 09:04:16;;;;;;;5.40;3.20;;;27.10;97.80;;;;;;4979605;28;20085;-70
2022/08/05 09:06:48;;;;;;;5.03;3.10;;;27.20;97.70;;;;;;4981724;28;20038;-71
2022/08/05 09:09:20;;;;;;;4.15;2.67;;;27.20;96.80;;;;;;4986078;28;20030;-70
2022/08/05 09:11:52;;;;;;;4.30;2.80;;;27.20;96.50;;;;;;4978989;28;20750;-71
2022/08/05 09:14:25;;;;;;;3.17;2.87;;;27.40;96.50;;;;;;4984964;28;20070;-70
2022/08/05 09:16:57;;;;;;;6.03;2.75;;;27.50;96.40;;;;;;4979036;28;20094;-71
2022/08/05 09:19:29;;;;;;;7.15;2.97;;;27.60;96.40;;;;;;4975445;28;20039;-70
2022/08/05 09:22:00;;;;;;;5.03;2.78;;;27.70;95.60;;;;;;4976056;28;20564;-71
2022/08/05 09:24:34;;;;;;;4.75;2.90;;;27.80;94.90;;;;;;4981264;28;20492;-70
2022/08/05 09:27:09;;;;;;;4.53;2.65;;;27.80;93.90;;;;;;4984506;28;20047;-70
2022/08/05 09:29:47;;;;;;;5.28;2.53;;;27.90;93.20;;;;;;4984752;28;20088;-70
2022/08/05 09:32:32;;;;;;;3.55;2.40;;;28.00;92.80;;;;;;4984637;28;20047;-70
2022/08/05 09:35:16;;;;;;;2.95;1.92;;;28.00;92.00;;;;;;4980953;28;20061;-70
2022/08/05 09:37:52;;;;;;;5.57;2.20;;;28.20;91.80;;;;;;4988139;28;20035;-71
2022/08/05 09:40:32;;;;;;;2.50;2.30;;;28.20;91.00;;;;;;4974562;28;20051;-70
2022/08/05 09:43:09;;;;;;;5.13;3.15;;;28.30;89.80;;;;;;4977034;28;20047;-70
2022/08/05 09:45:41;;;;;;;4.82;2.88;;;28.30;90.00;;;;;;4980356;28;20055;-70
2022/08/05 09:48:34;;;;;;;4.55;2.28;;;28.30;89.30;;;;;;4992049;28;20046;-70
2022/08/05 09:51:07;;;;;;;2.47;2.28;;;28.40;90.10;;;;;;4984215;28;20054;-70
2022/08/05 09:53:48;;;;;;;3.55;2.30;;;28.40;90.30;;;;;;4976236;28;20053;-71
2022/08/05 09:56:34;;;;;;;2.40;2.20;;;28.60;88.30;;;;;;4976059;28;20489;-70
2022/08/05 09:59:11;;;;;;;3.53;2.10;;;28.60;89.50;;;;;;4976524;28;20039;-70
2022/08/05 10:01:45;;;;;;;4.13;2.17;;;28.70;88.20;;;;;;4987047;28;20049;-70
2022/08/05 10:04:17;;;;;;;2.55;2.35;;;28.90;87.20;;;;;;4978765;28;20042;-70
2022/08/05 10:06:56;;;;;;;5.10;2.65;;;28.90;87.60;;;;;;4974887;28;20138;-70
2022/08/05 10:09:28;;;;;;;2.40;2.20;;;29.10;87.80;;;;;;4984693;28;20038;-70
2022/08/05 10:12:08;;;;;;;5.05;3.00;;;29.10;85.30;;;;;;4984495;28;20042;-70
2022/08/05 10:14:40;;;;;;;3.00;2.78;;;29.10;85.80;;;;;;4974728;28;20401;-70
2022/08/05 10:17:14;;;;;;;2.95;2.60;;;29.10;84.90;;;;;;4981467;28;20034;-70
2022/08/05 10:19:46;;;;;;;3.50;2.20;;;29.00;85.50;;;;;;4975872;28;20035;-70
2022/08/05 10:22:18;;;;;;;2.80;2.60;;;29.00;83.60;;;;;;4981949;28;20042;-70
2022/08/05 10:24:49;;;;;;;4.30;2.77;;;29.00;84.40;;;;;;4982110;28;20034;-70
2022/08/05 10:27:21;;;;;;;4.75;2.67;;;29.10;84.70;;;;;;4982085;28;20440;-70
2022/08/05 10:29:48;;;;;;;3.15;2.45;;;29.10;83.10;;;;;;4985325;28;20038;-70
2022/08/05 10:32:20;;;;;;;3.40;2.50;;;29.10;85.40;;;;;;4988592;28;20046;-70
2022/08/05 10:34:52;;;;;;;4.60;2.85;;;29.00;85.20;;;;;;4985077;28;20049;-70
2022/08/05 10:37:24;;;;;;;5.00;2.63;;;28.90;84.60;;;;;;4984138;28;20046;-70
2022/08/05 10:40:00;;;;;;;3.42;2.53;;;28.80;84.90;;;;;;4980222;28;20047;-70
2022/08/05 10:42:37;;;;;;;4.60;3.00;;;28.80;84.90;;;;;;4979130;28;20047;-70
2022/08/05 10:45:10;;;;;;;3.38;2.90;;;29.00;86.00;;;;;;4989430;28;20047;-70
2022/08/05 10:47:43;;;;;;;4.00;2.78;;;29.10;84.40;;;;;;4984664;28;20054;-70
2022/08/05 10:50:16;;;;;;;4.10;2.60;;;29.30;82.80;;;;;;4985398;28;20053;-71
2022/08/05 10:52:56;;;;;;;2.97;2.65;;;29.40;83.30;;;;;;4984657;28;20042;-71
2022/08/05 10:55:29;;;;;;;5.20;2.92;;;29.60;84.00;;;;;;4973265;28;20043;-71
2022/08/05 10:58:07;;;;;;;3.58;2.22;;;29.70;82.20;;;;;;4987498;28;20047;-70
2022/08/05 11:00:45;;;;;;;4.13;2.90;;;29.80;81.50;;;;;;4977111;28;20051;-70
2022/08/05 11:03:17;;;;;;;5.10;2.78;;;30.00;81.50;;;;;;4979460;28;20054;-70
2022/08/05 11:06:10;;;;;;;3.35;2.55;;;30.20;80.70;;;;;;4984688;28;20042;-70
2022/08/05 11:09:19;;;;;;;4.72;3.03;;;30.20;80.20;;;;;;4988477;28;20043;-70
2022/08/05 11:11:52;;;;;;;3.88;2.40;;;30.30;79.90;;;;;;4987204;28;20405;-70
2022/08/05 11:14:28;;;;;;;3.00;2.80;;;30.30;78.90;;;;;;4987134;28;20043;-70
2022/08/05 11:17:32;;;;;;;3.38;2.25;;;30.30;79.10;;;;;;4983985;28;20047;-70
2022/08/05 11:20:07;;;;;;;;;;;30.40;78.50;;;;;;4980543;28;20054;-70
2022/08/05 11:22:50;;;;;;;3.03;2.72;;;30.50;78.40;;;;;;4978738;28;20443;-71
2022/08/05 11:25:42;;;;;;;4.85;2.95;;;30.40;77.50;;;;;;4983644;28;20050;-70
2022/08/05 11:28:14;;;;;;;5.10;2.78;;;30.50;76.70;;;;;;4986150;28;20042;-70
2022/08/05 11:30:55;;;;;;;7.30;2.83;;;30.60;76.50;;;;;;4985813;28;20050;-70
2022/08/05 11:33:31;;;;;;;3.83;2.67;;;30.90;75.50;;;;;;4989803;28;20074;-71
2022/08/05 11:36:08;;;;;;;4.45;2.58;;;30.90;76.30;;;;;;4979744;28;20042;-71
2022/08/05 11:38:43;;;;;;;4.07;2.67;;;31.10;74.90;;;;;;4985915;28;20038;-70
2022/08/05 11:41:21;;;;;;;4.15;2.50;;;31.10;74.70;;;;;;4976436;28;20415;-70
2022/08/05 11:43:59;;;;;;;3.25;2.92;;;31.10;74.50;;;;;;4978485;28;20042;-70
2022/08/05 11:46:38;;;;;;;5.55;2.67;;;31.00;73.70;;;;;;4982721;28;20405;-70
2022/08/05 11:49:14;;;;;;;2.78;2.50;;;31.00;73.50;;;;;;4987091;28;20432;-71
2022/08/05 11:51:48;;;;;;;4.47;2.33;;;30.90;74.90;;;;;;4988050;28;20054;-71
2022/08/05 11:54:32;;;;;;;6.18;2.65;;;30.90;75.20;;;;;;4985779;28;20090;-71
2022/08/05 11:57:04;;;;;;;4.80;2.90;;;30.90;74.00;;;;;;4983461;28;20048;-70
2022/08/05 11:59:36;;;;;;;3.30;2.67;;;31.00;73.00;;;;;;4977996;28;20122;-70
2022/08/05 12:02:08;;;;;;;2.78;2.45;;;30.90;72.00;;;;;;4988387;28;20053;-70
2022/08/05 12:04:45;;;;;;;3.75;2.55;;;30.70;72.40;;;;;;4980743;28;20038;-70
2022/08/05 12:07:17;;;;;;;3.97;2.60;;;30.60;72.10;;;;;;4980849;28;20057;-70
2022/08/05 12:09:51;;;;;;;4.72;3.13;;;30.80;74.80;;;;;;4985910;28;20440;-70
2022/08/05 12:12:29;;;;;;;2.97;2.75;;;31.00;73.30;;;;;;4977882;28;20061;-70
2022/08/05 12:15:00;;;;;;;3.17;2.38;;;31.20;72.90;;;;;;4974826;28;20046;-70
2022/08/05 12:17:35;;;;;;;2.50;2.30;;;31.40;74.00;;;;;;4983922;28;20057;-70
2022/08/05 12:20:07;;;;;;;3.78;2.70;;;31.60;70.40;;;;;;4990068;28;20503;-70
2022/08/05 12:22:39;;;;;;;5.70;2.60;;;31.80;69.10;;;;;;4988280;28;20043;-70
2022/08/05 12:25:10;;;;;;;5.13;2.70;;;31.70;70.20;;;;;;4984302;28;20735;-69
2022/08/05 12:27:46;;;;;;;3.38;2.72;;;31.70;69.10;;;;;;4982926;28;20501;-69
2022/08/05 12:30:19;;;;;;;6.18;2.80;;;31.70;69.50;;;;;;4981610;28;20097;-70
2022/08/05 12:32:54;;;;;;;4.45;2.90;;;31.80;69.80;;;;;;4986980;28;20105;-70
2022/08/05 12:35:26;;;;;;;4.32;2.72;;;32.00;71.70;;;;;;4974176;28;20125;-70
2022/08/05 12:37:57;;;;;;;4.00;2.47;;;32.20;69.60;;;;;;4985842;28;20035;-69
2022/08/05 12:40:29;;;;;;;4.20;2.37;;;32.40;68.70;;;;;;4976588;28;20814;-70
2022/08/05 12:43:01;;;;;;;2.70;2.50;;;32.40;67.30;;;;;;4987907;28;20051;-69
2022/08/05 12:45:33;;;;;;;7.90;2.70;;;32.40;66.90;;;;;;4980065;28;20034;-70
2022/08/05 12:48:14;;;;;;;8.47;3.03;;;32.50;67.80;;;;;;4986997;28;20406;-70
2022/08/05 12:51:09;;;;;;;5.25;2.80;;;32.50;67.20;;;;;;4984189;28;20046;-70
2022/08/05 12:53:45;;;;;;;2.60;2.40;;;32.70;66.20;;;;;;4979977;28;20042;-70
2022/08/05 12:56:17;;;;;;;3.13;2.70;;;32.70;66.20;;;;;;4976321;28;20598;-69
2022/08/05 12:59:15;;;;;;;2.85;2.65;;;32.70;66.80;;;;;;4986277;28;20041;-70
2022/08/05 13:02:23;;;;;;;6.70;3.40;;;32.70;66.10;;;;;;4978560;28;20420;-70
2022/08/05 13:04:55;;;;;;;4.90;2.70;;;32.50;64.70;;;;;;4965184;28;20053;-70
2022/08/05 13:07:26;;;;;;;5.82;3.40;;;32.40;65.90;;;;;;4986413;28;20412;-70
2022/08/05 13:09:58;;;;;;;5.20;2.90;;;32.40;65.10;;;;;;4989368;28;20070;-70
2022/08/05 13:12:30;;;;;;;4.82;2.90;;;32.50;65.20;;;;;;5044757;23;20053;-87
2022/08/05 13:14:59;;;;;;;9.45;3.75;;;32.40;64.80;;;;;;5054562;28;20059;-87
2022/08/05 13:17:28;;;;;;;6.78;2.97;;;32.40;65.30;;;;;;5065751;28;20048;-90
2022/08/05 13:20:05;;;;;;;3.72;2.70;;;32.50;64.30;;;;;;5024217;28;20041;-89
2022/08/05 13:22:33;;;;;;;6.40;2.80;;;32.70;65.60;;;;;;5046433;28;20147;-88
2022/08/05 13:25:04;;;;;;;2.75;2.40;;;32.90;65.10;;;;;;5059209;22;20073;-71
2022/08/05 13:27:40;;;;;;;3.17;2.90;;;33.00;62.80;;;;;;5022538;28;20133;-71